createdAt,value
2022-10-11T00:00:44.175Z,85.82
2022-10-11T00:03:06.069Z,85.94
2022-10-11T00:05:28.168Z,87.57
2022-10-11T00:07:49.758Z,87.07
2022-10-11T00:10:11.275Z,87.41
2022-10-11T00:12:34.575Z,87.35
2022-10-11T00:14:56.035Z,86.88
2022-10-11T00:17:17.527Z,86.27
2022-10-11T00:19:38.973Z,87.16
2022-10-11T00:22:00.453Z,87.58
2022-10-11T00:24:21.933Z,86.94
2022-10-11T00:26:46.851Z,88.60
2022-10-11T00:29:08.666Z,90.63
2022-10-11T00:31:35.376Z,90.55
2022-10-11T00:33:57.457Z,91.50
2022-10-11T00:36:18.962Z,92.10
2022-10-11T00:38:40.478Z,92.23
2022-10-11T00:41:02.077Z,91.94
2022-10-11T00:43:26.392Z,93.24
2022-10-11T00:45:56.657Z,93.42
2022-10-11T00:48:41.162Z,93.35
2022-10-11T00:51:06.566Z,93.53
2022-10-11T00:53:30.914Z,92.91
2022-10-11T00:56:01.498Z,92.55
2022-10-11T00:58:24.053Z,91.15
2022-10-11T01:00:46.039Z,91.53
2022-10-11T01:03:07.578Z,90.88
2022-10-11T01:05:30.642Z,89.73
2022-10-11T01:07:53.812Z,89.42
2022-10-11T01:10:15.393Z,89.90
2022-10-11T01:12:48.782Z,87.89
2022-10-11T01:15:16.080Z,87.51
2022-10-11T01:17:37.489Z,87.85
2022-10-11T01:20:08.584Z,87.16
2022-10-11T01:22:51.628Z,87.79
2022-10-11T01:25:28.633Z,88.82
2022-10-11T01:28:07.457Z,88.36
2022-10-11T01:30:31.470Z,88.10
2022-10-11T01:33:17.666Z,87.85
2022-10-11T01:35:57.358Z,87.16
2022-10-11T01:38:30.117Z,87.47
2022-10-11T01:40:57.586Z,87.97
2022-10-11T01:43:20.694Z,87.28
2022-10-11T01:45:43.422Z,87.45
2022-10-11T01:48:10.871Z,86.96
2022-10-11T01:50:48.341Z,86.57
2022-10-11T01:53:24.482Z,85.96
2022-10-11T01:55:55.329Z,85.29
2022-10-11T01:58:32.573Z,85.36
2022-10-11T02:01:08.932Z,85.25
2022-10-11T02:04:00.517Z,84.47
2022-10-11T02:06:39.646Z,84.07
2022-10-11T02:09:09.362Z,82.62
2022-10-11T02:11:33.656Z,82.64
2022-10-11T02:14:16.237Z,82.32
2022-10-11T02:16:43.573Z,80.02
2022-10-11T02:19:08.156Z,79.48
2022-10-11T02:21:31.186Z,77.74
2022-10-11T02:24:02.219Z,76.25
2022-10-11T02:26:27.592Z,77.34
2022-10-11T02:28:53.041Z,77.17
2022-10-11T02:31:17.002Z,76.87
2022-10-11T02:33:47.813Z,76.70
2022-10-11T02:36:21.921Z,76.89
2022-10-11T02:38:49.873Z,76.39
2022-10-11T02:41:21.416Z,76.51
2022-10-11T02:43:51.802Z,76.36
2022-10-11T02:46:17.494Z,76.39
2022-10-11T02:48:39.834Z,76.07
2022-10-11T02:51:03.469Z,75.75
2022-10-11T02:53:26.495Z,75.58
2022-10-11T02:55:49.410Z,75.23
2022-10-11T02:58:10.843Z,74.86
2022-10-11T03:00:32.375Z,74.92
2022-10-11T03:02:53.864Z,75.23
2022-10-11T03:05:15.637Z,75.15
2022-10-11T03:07:37.139Z,75.23
2022-10-11T03:09:58.663Z,74.99
2022-10-11T03:12:20.161Z,75.11
2022-10-11T03:14:41.650Z,75.21
2022-10-11T03:17:17.579Z,74.82
2022-10-11T03:19:44.646Z,75.01
2022-10-11T03:22:06.159Z,75.42
2022-10-11T03:24:27.603Z,75.45
2022-10-11T03:26:49.043Z,75.56
2022-10-11T03:29:10.559Z,75.27
2022-10-11T03:31:32.041Z,74.67
2022-10-11T03:33:53.550Z,74.36
2022-10-11T03:36:15.032Z,74.20
2022-10-11T03:38:36.606Z,73.73
2022-10-11T03:40:58.056Z,73.99
2022-10-11T03:43:19.634Z,73.55
2022-10-11T03:45:43.767Z,73.56
2022-10-11T03:48:05.531Z,73.50
2022-10-11T03:50:27.068Z,73.64
2022-10-11T03:52:48.660Z,73.45
2022-10-11T03:55:10.138Z,72.88
2022-10-11T03:57:31.612Z,73.28
2022-10-11T03:59:53.106Z,73.43
2022-10-11T04:02:15.166Z,72.93
2022-10-11T04:04:36.717Z,72.38
2022-10-11T04:06:58.204Z,72.69
2022-10-11T04:09:19.717Z,72.80
2022-10-11T04:11:41.236Z,72.45
2022-10-11T04:14:02.750Z,72.39
2022-10-11T04:16:24.262Z,71.94
2022-10-11T04:18:45.782Z,72.00
2022-10-11T04:21:07.486Z,72.36
2022-10-11T04:23:31.064Z,72.54
2022-10-11T04:25:52.525Z,73.23
2022-10-11T04:28:14.760Z,72.50
2022-10-11T04:30:36.447Z,72.46
2022-10-11T04:32:58.027Z,72.52
2022-10-11T04:35:19.480Z,72.52
2022-10-11T04:37:40.997Z,72.50
2022-10-11T04:40:03.292Z,72.69
2022-10-11T04:42:24.803Z,73.05
2022-10-11T04:44:46.636Z,73.15
2022-10-11T04:47:08.128Z,73.28
2022-10-11T04:49:29.578Z,73.29
2022-10-11T04:51:51.126Z,73.96
2022-10-11T04:54:12.621Z,73.85
2022-10-11T04:56:34.083Z,72.28
2022-10-11T04:58:55.551Z,71.73
2022-10-11T05:01:17.050Z,72.05
2022-10-11T05:03:38.495Z,72.29
2022-10-11T05:06:05.239Z,72.25
2022-10-11T05:08:27.362Z,71.91
2022-10-11T05:10:59.980Z,71.86
2022-10-11T05:13:21.442Z,71.94
2022-10-11T05:15:42.921Z,72.24
2022-10-11T05:18:04.433Z,72.57
2022-10-11T05:20:26.437Z,72.35
2022-10-11T05:22:48.021Z,72.54
2022-10-11T05:25:09.574Z,72.47
2022-10-11T05:27:31.044Z,73.11
2022-10-11T05:29:52.504Z,73.13
2022-10-11T05:32:14.019Z,73.23
2022-10-11T05:34:35.475Z,73.04
2022-10-11T05:36:57.221Z,72.90
2022-10-11T05:39:18.673Z,72.56
2022-10-11T05:41:40.159Z,72.96
2022-10-11T05:44:01.681Z,72.34
2022-10-11T05:46:23.218Z,72.82
2022-10-11T05:48:44.726Z,72.58
2022-10-11T05:51:09.913Z,72.16
2022-10-11T05:53:32.078Z,72.17
2022-10-11T05:55:53.517Z,72.92
2022-10-11T05:58:17.304Z,72.82
2022-10-11T06:00:38.841Z,73.12
2022-10-11T06:03:00.352Z,72.29
2022-10-11T06:05:21.950Z,71.92
2022-10-11T06:07:43.465Z,72.36
2022-10-11T06:10:06.689Z,72.88
2022-10-11T06:12:30.053Z,73.40
2022-10-11T06:14:51.496Z,73.65
2022-10-11T06:17:13.264Z,73.13
2022-10-11T06:19:34.803Z,74.08
2022-10-11T06:21:56.287Z,73.97
2022-10-11T06:24:18.686Z,74.66
2022-10-11T06:26:40.306Z,74.88
2022-10-11T06:29:01.887Z,74.52
2022-10-11T06:31:23.443Z,75.06
2022-10-11T06:33:44.966Z,74.72
2022-10-11T06:36:12.516Z,74.56
2022-10-11T06:38:34.148Z,74.10
2022-10-11T06:40:55.642Z,74.54
2022-10-11T06:43:17.143Z,74.27
2022-10-11T06:45:38.628Z,73.94
2022-10-11T06:48:01.857Z,74.08
2022-10-11T06:50:47.318Z,73.98
2022-10-11T06:53:06.868Z,73.66
2022-10-11T06:55:28.405Z,73.55
2022-10-11T06:57:49.889Z,73.74
2022-10-11T07:00:12.920Z,73.70
2022-10-11T07:02:34.503Z,75.16
2022-10-11T07:04:55.960Z,74.55
2022-10-11T07:07:17.421Z,77.91
2022-10-11T07:09:38.881Z,76.19
2022-10-11T07:12:00.363Z,78.03
2022-10-11T07:14:21.851Z,77.26
2022-10-11T07:16:43.434Z,78.69
2022-10-11T07:19:06.549Z,77.50
2022-10-11T07:21:30.403Z,76.86
2022-10-11T07:23:52.011Z,77.16
2022-10-11T07:26:13.596Z,77.83
2022-10-11T07:28:36.528Z,77.64
2022-10-11T07:30:59.088Z,77.78
2022-10-11T07:33:20.577Z,77.46
2022-10-11T07:35:46.003Z,77.34
2022-10-11T07:38:10.147Z,77.37
2022-10-11T07:40:32.479Z,77.63
2022-10-11T07:42:54.258Z,77.94
2022-10-11T07:45:15.750Z,77.81
2022-10-11T07:47:37.235Z,78.10
2022-10-11T07:49:58.843Z,78.22
2022-10-11T07:52:20.292Z,78.75
2022-10-11T07:54:41.769Z,79.29
2022-10-11T07:57:03.243Z,79.44
2022-10-11T07:59:24.826Z,79.65
2022-10-11T08:01:46.712Z,79.67
2022-10-11T08:04:08.235Z,80.00
2022-10-11T08:06:32.745Z,81.10
2022-10-11T08:08:54.902Z,80.42
2022-10-11T08:11:34.652Z,80.87
2022-10-11T08:13:56.986Z,85.16
2022-10-11T08:16:19.405Z,89.50
2022-10-11T08:18:40.935Z,89.03
2022-10-11T08:21:07.088Z,88.69
2022-10-11T08:23:28.652Z,87.28
2022-10-11T08:25:50.142Z,88.64
2022-10-11T08:28:16.889Z,89.26
2022-10-11T08:30:38.392Z,89.04
2022-10-11T08:33:00.896Z,88.54
2022-10-11T08:35:24.807Z,88.42
2022-10-11T08:37:47.101Z,89.16
2022-10-11T08:40:13.179Z,87.57
2022-10-11T08:42:42.360Z,87.49
2022-10-11T08:45:18.622Z,88.29
2022-10-11T08:47:43.148Z,88.64
2022-10-11T08:50:07.545Z,87.84
2022-10-11T08:52:53.631Z,86.87
2022-10-11T08:55:26.079Z,88.92
2022-10-11T08:57:53.218Z,87.34
2022-10-11T09:00:17.114Z,87.52
2022-10-11T09:03:08.480Z,88.04
2022-10-11T09:05:35.542Z,88.19
2022-10-11T09:08:23.363Z,86.95
2022-10-11T09:10:44.755Z,88.78
2022-10-11T09:13:41.700Z,88.83
2022-10-11T09:16:21.786Z,85.40
2022-10-11T09:18:58.361Z,85.56
2022-10-11T09:21:36.606Z,86.35
2022-10-11T09:24:22.600Z,83.78
2022-10-11T09:27:18.081Z,83.38
2022-10-11T09:30:00.466Z,81.26
2022-10-11T09:32:23.135Z,79.58
2022-10-11T09:34:44.608Z,81.43
2022-10-11T09:37:12.107Z,79.29
2022-10-11T09:39:36.426Z,78.91
2022-10-11T09:42:08.884Z,78.19
2022-10-11T09:44:35.548Z,79.45
2022-10-11T09:46:58.204Z,72.67
2022-10-11T09:49:22.725Z,76.43
2022-10-11T09:51:52.601Z,74.48
2022-10-11T09:54:14.071Z,74.15
2022-10-11T09:56:41.920Z,71.96
2022-10-11T09:59:26.173Z,67.22
2022-10-11T10:01:47.684Z,70.91
2022-10-11T10:04:12.772Z,70.58
2022-10-11T10:06:34.535Z,70.29
2022-10-11T10:09:26.393Z,72.06
2022-10-11T10:11:48.160Z,69.29
2022-10-11T10:14:20.317Z,68.62
2022-10-11T10:16:41.935Z,66.08
2022-10-11T10:19:07.230Z,66.10
2022-10-11T10:21:36.789Z,65.77
2022-10-11T10:24:03.186Z,64.65
2022-10-11T10:26:26.686Z,63.66
2022-10-11T10:29:18.610Z,64.54
2022-10-11T10:34:36.428Z,65.84
2022-10-11T10:37:09.451Z,65.57
2022-10-11T10:39:39.613Z,66.39
2022-10-11T10:42:05.027Z,61.32
2022-10-11T10:44:26.504Z,62.42
2022-10-11T10:47:10.185Z,63.60
2022-10-11T10:49:54.185Z,62.59
2022-10-11T10:52:39.071Z,60.56
2022-10-11T10:55:12.484Z,60.81
2022-10-11T10:58:02.332Z,63.46
2022-10-11T11:00:25.074Z,61.27
2022-10-11T11:03:03.449Z,61.17
2022-10-11T11:05:48.301Z,57.72
2022-10-11T11:08:12.405Z,57.99
2022-10-11T11:10:53.191Z,56.46
2022-10-11T11:13:26.718Z,58.15
2022-10-11T11:16:04.026Z,57.49
2022-10-11T11:18:51.788Z,57.63
2022-10-11T11:21:48.127Z,56.80
2022-10-11T11:24:31.658Z,58.75
2022-10-11T11:27:21.856Z,58.26
2022-10-11T11:29:55.902Z,54.89
2022-10-11T11:32:44.846Z,54.07
2022-10-11T11:35:28.501Z,55.34
2022-10-11T11:37:59.261Z,55.75
2022-10-11T11:40:35.397Z,55.47
2022-10-11T11:43:05.001Z,55.17
2022-10-11T11:45:37.779Z,56.32
2022-10-11T11:48:03.935Z,55.09
2022-10-11T11:50:27.915Z,53.57
2022-10-11T11:52:55.651Z,55.99
2022-10-11T11:55:17.049Z,56.27
2022-10-11T11:58:03.310Z,55.82
2022-10-11T12:00:35.010Z,53.23
2022-10-11T12:02:59.232Z,52.64
2022-10-11T12:05:25.392Z,52.35
2022-10-11T12:08:06.373Z,52.43
2022-10-11T12:10:31.695Z,52.48
2022-10-11T12:13:31.991Z,52.47
2022-10-11T12:16:06.061Z,51.34
2022-10-11T12:18:30.648Z,52.95
2022-10-11T12:21:30.644Z,52.38
2022-10-11T12:24:11.501Z,49.89
2022-10-11T12:26:54.080Z,50.89
2022-10-11T12:29:18.550Z,50.55
2022-10-11T12:31:45.166Z,51.41
2022-10-11T12:34:10.209Z,51.89
2022-10-11T12:36:36.737Z,51.46
2022-10-11T12:39:40.811Z,47.96
2022-10-11T12:42:08.359Z,48.98
2022-10-11T12:44:30.368Z,49.49
2022-10-11T12:46:53.611Z,49.50
2022-10-11T12:49:31.103Z,49.29
2022-10-11T12:52:01.312Z,49.94
2022-10-11T12:54:40.799Z,50.88
2022-10-11T12:57:11.862Z,49.35
2022-10-11T12:59:34.504Z,50.13
2022-10-11T13:01:59.030Z,48.43
2022-10-11T13:04:31.531Z,48.51
2022-10-11T13:06:56.860Z,48.53
2022-10-11T13:09:39.285Z,46.38
2022-10-11T13:12:31.476Z,47.86
2022-10-11T13:15:06.973Z,46.85
2022-10-11T13:17:38.280Z,46.65
2022-10-11T13:20:17.271Z,46.76
2022-10-11T13:22:40.018Z,44.99
2022-10-11T13:25:05.907Z,46.22
2022-10-11T13:27:27.847Z,46.19
2022-10-11T13:29:51.619Z,44.87
2022-10-11T13:32:19.794Z,45.84
2022-10-11T13:34:44.177Z,45.94
2022-10-11T13:37:07.075Z,46.21
2022-10-11T13:39:39.153Z,46.92
2022-10-11T13:42:03.486Z,46.93
2022-10-11T13:44:26.523Z,47.89
2022-10-11T13:46:48.717Z,47.00
2022-10-11T13:49:40.146Z,46.30
2022-10-11T13:52:04.081Z,46.39
2022-10-11T13:54:25.842Z,44.70
2022-10-11T13:56:51.545Z,45.50
2022-10-11T13:59:20.250Z,45.41
2022-10-11T14:01:45.352Z,44.87
2022-10-11T14:04:09.718Z,45.48
2022-10-11T14:06:42.402Z,44.73
2022-10-11T14:09:04.079Z,44.98
2022-10-11T14:11:39.584Z,44.73
2022-10-11T14:14:21.044Z,43.87
2022-10-11T14:16:55.533Z,44.63
2022-10-11T14:19:19.225Z,45.39
2022-10-11T14:21:46.600Z,45.72
2022-10-11T14:24:10.587Z,44.99
2022-10-11T14:26:36.020Z,45.76
2022-10-11T14:29:00.812Z,46.96
2022-10-11T14:31:22.370Z,46.64
2022-10-11T14:33:43.927Z,46.28
2022-10-11T14:36:05.853Z,46.38
2022-10-11T14:38:27.420Z,46.75
2022-10-11T14:40:48.867Z,47.08
2022-10-11T14:43:10.332Z,46.85
2022-10-11T14:45:31.810Z,46.38
2022-10-11T14:47:53.583Z,46.88
2022-10-11T14:50:32.960Z,46.69
2022-10-11T14:52:55.079Z,47.20
2022-10-11T14:55:16.772Z,46.18
2022-10-11T14:57:38.269Z,45.62
2022-10-11T14:59:59.737Z,46.27
2022-10-11T15:02:21.235Z,47.25
2022-10-11T15:04:42.717Z,46.75
2022-10-11T15:07:04.791Z,47.21
2022-10-11T15:09:26.302Z,47.37
2022-10-11T15:11:49.656Z,47.12
2022-10-11T15:14:11.129Z,47.91
2022-10-11T15:16:33.366Z,48.21
2022-10-11T15:18:54.868Z,48.51
2022-10-11T15:21:21.184Z,48.32
2022-10-11T15:23:42.697Z,48.36
2022-10-11T15:26:04.769Z,48.36
2022-10-11T15:28:31.926Z,48.53
2022-10-11T15:30:54.800Z,47.92
2022-10-11T15:33:16.277Z,47.65
2022-10-11T15:35:37.730Z,48.05
2022-10-11T15:38:00.271Z,47.78
2022-10-11T15:40:33.624Z,48.00
2022-10-11T15:42:55.165Z,48.37
2022-10-11T15:45:17.746Z,47.88
2022-10-11T15:47:39.540Z,48.03
2022-10-11T15:50:01.041Z,48.29
2022-10-11T15:52:22.516Z,47.61
2022-10-11T15:54:43.953Z,48.31
2022-10-11T15:57:05.431Z,48.67
2022-10-11T15:59:26.894Z,48.54
2022-10-11T16:01:48.478Z,48.64
2022-10-11T16:04:10.347Z,48.61
2022-10-11T16:06:33.299Z,48.80
2022-10-11T16:08:54.774Z,49.01
2022-10-11T16:11:16.500Z,49.09
2022-10-11T16:13:38.150Z,49.32
2022-10-11T16:16:04.286Z,49.29
2022-10-11T16:18:26.068Z,50.12
2022-10-11T16:20:51.063Z,50.28
2022-10-11T16:23:13.925Z,50.79
2022-10-11T16:25:35.817Z,51.14
2022-10-11T16:27:57.300Z,51.39
2022-10-11T16:30:19.611Z,51.58
2022-10-11T16:32:41.612Z,52.42
2022-10-11T16:35:03.129Z,52.63
2022-10-11T16:37:24.650Z,53.70
2022-10-11T16:39:46.364Z,54.09
2022-10-11T16:42:07.945Z,53.90
2022-10-11T16:44:29.544Z,53.68
2022-10-11T16:46:51.684Z,54.23
2022-10-11T16:49:13.155Z,54.60
2022-10-11T16:51:34.682Z,54.80
2022-10-11T16:53:56.324Z,54.76
2022-10-11T16:56:20.463Z,55.20
2022-10-11T16:58:41.930Z,55.42
2022-10-11T17:01:08.909Z,55.97
2022-10-11T17:03:30.442Z,56.24
2022-10-11T17:05:51.987Z,57.54
2022-10-11T17:08:13.430Z,57.29
2022-10-11T17:10:44.264Z,57.39
2022-10-11T17:13:06.798Z,57.44
2022-10-11T17:15:30.094Z,57.92
2022-10-11T17:17:55.040Z,58.19
2022-10-11T17:20:16.670Z,58.23
2022-10-11T17:22:38.139Z,58.15
2022-10-11T17:25:01.466Z,58.74
2022-10-11T17:27:23.004Z,58.43
2022-10-11T17:29:44.472Z,58.34
2022-10-11T17:32:06.411Z,58.54
2022-10-11T17:34:28.028Z,59.04
2022-10-11T17:36:49.631Z,59.07
2022-10-11T17:39:14.751Z,59.06
2022-10-11T17:41:36.697Z,59.34
2022-10-11T17:43:58.302Z,59.54
2022-10-11T17:46:22.240Z,59.61
2022-10-11T17:48:44.707Z,60.31
2022-10-11T17:51:11.291Z,61.23
2022-10-11T17:53:32.931Z,61.13
2022-10-11T17:55:54.490Z,61.68
2022-10-11T17:58:17.154Z,62.26
2022-10-11T18:00:39.677Z,61.77
2022-10-11T18:03:01.271Z,61.83
2022-10-11T18:05:22.764Z,61.98
2022-10-11T18:07:44.251Z,61.89
2022-10-11T18:10:06.188Z,61.69
2022-10-11T18:12:27.674Z,63.38
2022-10-11T18:14:51.053Z,63.80
2022-10-11T18:17:12.620Z,62.89
2022-10-11T18:19:34.124Z,62.74
2022-10-11T18:21:55.583Z,63.48
2022-10-11T18:24:17.371Z,64.22
2022-10-11T18:26:39.331Z,64.10
2022-10-11T18:29:00.900Z,64.12
2022-10-11T18:31:25.178Z,65.07
2022-10-11T18:33:47.548Z,64.40
2022-10-11T18:36:10.522Z,64.17
2022-10-11T18:38:33.041Z,64.12
2022-10-11T18:40:54.527Z,64.03
2022-10-11T18:43:16.011Z,63.89
2022-10-11T18:45:37.491Z,64.54
2022-10-11T18:47:58.992Z,64.68
2022-10-11T18:50:20.552Z,64.15
2022-10-11T18:52:44.536Z,63.97
2022-10-11T18:55:06.684Z,64.60
2022-10-11T18:57:28.762Z,65.23
2022-10-11T18:59:50.461Z,65.22
2022-10-11T19:02:12.660Z,65.22
2022-10-11T19:04:34.376Z,64.80
2022-10-11T19:06:55.880Z,64.64
2022-10-11T19:09:22.145Z,65.32
2022-10-11T19:11:43.782Z,65.94
2022-10-11T19:14:08.390Z,65.49
2022-10-11T19:16:30.155Z,65.32
2022-10-11T19:18:52.813Z,65.62
2022-10-11T19:21:14.519Z,65.78
2022-10-11T19:23:39.471Z,65.47
2022-10-11T19:26:01.983Z,65.20
2022-10-11T19:28:23.511Z,65.65
2022-10-11T19:30:44.989Z,65.56
2022-10-11T19:33:07.164Z,65.30
2022-10-11T19:35:28.670Z,65.91
2022-10-11T19:37:50.165Z,66.87
2022-10-11T19:40:12.225Z,68.24
2022-10-11T19:42:34.099Z,67.13
2022-10-11T19:44:55.840Z,66.92
2022-10-11T19:47:17.325Z,67.00
2022-10-11T19:49:39.960Z,66.77
2022-10-11T19:52:01.476Z,67.31
2022-10-11T19:54:23.679Z,68.31
2022-10-11T19:56:45.278Z,68.77
2022-10-11T19:59:07.195Z,67.77
2022-10-11T20:01:31.107Z,67.41
2022-10-11T20:03:58.925Z,67.37
2022-10-11T20:06:22.012Z,67.10
2022-10-11T20:08:44.706Z,67.10
2022-10-11T20:11:10.091Z,66.61
2022-10-11T20:13:35.012Z,66.92
2022-10-11T20:15:58.233Z,67.14
2022-10-11T20:18:19.729Z,67.60
2022-10-11T20:20:51.426Z,66.95
2022-10-11T20:23:17.633Z,66.51
2022-10-11T20:25:39.635Z,66.46
2022-10-11T20:28:01.113Z,66.98
2022-10-11T20:30:22.579Z,66.50
2022-10-11T20:32:44.067Z,67.39
2022-10-11T20:35:05.986Z,68.10
2022-10-11T20:37:27.448Z,67.72
2022-10-11T20:39:48.891Z,68.28
2022-10-11T20:42:10.375Z,67.41
2022-10-11T20:44:31.818Z,67.13
2022-10-11T20:46:53.299Z,66.94
2022-10-11T20:49:14.796Z,66.46
2022-10-11T20:51:39.129Z,67.04
2022-10-11T20:54:02.214Z,67.14
2022-10-11T20:56:23.911Z,68.66
2022-10-11T20:58:45.684Z,68.65
2022-10-11T21:01:10.001Z,68.71
2022-10-11T21:03:31.518Z,68.32
2022-10-11T21:06:02.582Z,68.30
2022-10-11T21:08:24.070Z,68.87
2022-10-11T21:10:53.209Z,69.33
2022-10-11T21:13:14.787Z,68.35
2022-10-11T21:15:36.256Z,68.45
2022-10-11T21:17:58.315Z,69.97
2022-10-11T21:20:20.005Z,69.60
2022-10-11T21:22:41.478Z,69.52
2022-10-11T21:25:03.324Z,69.87
2022-10-11T21:27:25.153Z,69.43
2022-10-11T21:29:46.631Z,69.98
2022-10-11T21:32:12.043Z,69.35
2022-10-11T21:34:35.642Z,69.32
2022-10-11T21:36:57.140Z,68.69
2022-10-11T21:39:18.641Z,70.44
2022-10-11T21:41:42.211Z,69.50
2022-10-11T21:44:04.458Z,70.27
2022-10-11T21:46:47.543Z,71.24
2022-10-11T21:49:09.934Z,70.34
2022-10-11T21:51:32.608Z,70.35
2022-10-11T21:53:55.819Z,70.03
2022-10-11T21:56:17.985Z,70.21
2022-10-11T21:58:39.562Z,69.66
2022-10-11T22:01:01.031Z,69.22
2022-10-11T22:03:22.652Z,69.77
2022-10-11T22:05:45.522Z,69.59
2022-10-11T22:08:06.985Z,70.24
2022-10-11T22:10:28.433Z,70.65
2022-10-11T22:12:49.932Z,69.80
2022-10-11T22:15:11.403Z,69.93
2022-10-11T22:17:32.902Z,69.46
2022-10-11T22:19:54.346Z,69.69
2022-10-11T22:22:15.875Z,70.35
2022-10-11T22:24:37.308Z,69.85
2022-10-11T22:26:58.870Z,69.47
2022-10-11T22:29:20.346Z,69.58
2022-10-11T22:31:42.366Z,71.35
2022-10-11T22:34:03.882Z,70.70
2022-10-11T22:36:26.636Z,69.89
2022-10-11T22:38:48.136Z,69.82
2022-10-11T22:41:10.500Z,70.01
2022-10-11T22:43:32.179Z,70.61
2022-10-11T22:45:53.719Z,70.77
2022-10-11T22:48:15.413Z,70.85
2022-10-11T22:50:36.916Z,70.84
2022-10-11T22:52:58.423Z,70.49
2022-10-11T22:55:20.342Z,70.46
2022-10-11T22:57:41.933Z,69.58
2022-10-11T23:00:04.266Z,69.64
2022-10-11T23:02:25.744Z,69.66
2022-10-11T23:04:47.223Z,69.65
2022-10-11T23:07:08.689Z,69.28
2022-10-11T23:09:31.582Z,70.62
2022-10-11T23:11:53.072Z,70.95
2022-10-11T23:14:14.613Z,70.48
2022-10-11T23:16:36.101Z,70.27
2022-10-11T23:18:57.661Z,69.66
2022-10-11T23:21:19.460Z,69.84
2022-10-11T23:23:40.954Z,72.11
2022-10-11T23:26:05.466Z,72.34
2022-10-11T23:28:26.993Z,71.78
2022-10-11T23:30:48.562Z,71.60
2022-10-11T23:33:10.012Z,70.89
2022-10-11T23:35:31.873Z,71.25
2022-10-11T23:37:54.289Z,70.81
2022-10-11T23:40:16.037Z,70.42
2022-10-11T23:42:37.525Z,70.50
2022-10-11T23:44:59.264Z,70.83
2022-10-11T23:47:20.781Z,71.15
2022-10-11T23:49:42.251Z,72.94
2022-10-11T23:52:03.745Z,71.49
2022-10-11T23:54:25.279Z,72.08
2022-10-11T23:56:46.760Z,71.87
2022-10-11T23:59:08.259Z,72.34
